createdAt,value
2018-04-16T00:00:47.493Z,100.00
2018-04-16T00:01:50.276Z,100.00
2018-04-16T00:02:53.739Z,100.00
2018-04-16T00:03:56.551Z,100.00
2018-04-16T00:04:59.366Z,100.00
2018-04-16T00:06:02.292Z,100.00
2018-04-16T00:07:05.592Z,100.00
2018-04-16T00:08:08.482Z,100.00
2018-04-16T00:09:11.297Z,100.00
2018-04-16T00:10:14.195Z,100.00
2018-04-16T00:11:16.980Z,100.00
2018-04-16T00:12:19.895Z,100.00
2018-04-16T00:13:23.140Z,100.00
2018-04-16T00:14:25.989Z,100.00
2018-04-16T00:15:28.924Z,100.00
2018-04-16T00:16:31.857Z,100.00
2018-04-16T00:17:34.687Z,100.00
2018-04-16T00:18:37.600Z,100.00
2018-04-16T00:19:40.863Z,100.00
2018-04-16T00:20:43.760Z,100.00
2018-04-16T00:21:46.549Z,100.00
2018-04-16T00:22:49.343Z,100.00
2018-04-16T00:23:52.149Z,100.00
2018-04-16T00:24:54.979Z,100.00
2018-04-16T00:25:58.295Z,100.00
2018-04-16T00:27:01.195Z,100.00
2018-04-16T00:28:04.025Z,100.00
2018-04-16T00:29:06.960Z,100.00
2018-04-16T00:30:10.851Z,100.00
2018-04-16T00:31:13.750Z,100.00
2018-04-16T00:32:20.809Z,100.00
2018-04-16T00:35:29.456Z,100.00
2018-04-16T00:36:36.180Z,100.00
2018-04-16T00:39:54.631Z,100.00
2018-04-16T00:43:05.621Z,100.00
2018-04-16T00:46:14.745Z,100.00
2018-04-16T00:49:24.906Z,100.00
2018-04-16T00:52:33.565Z,100.00
2018-04-16T00:55:42.547Z,100.00
2018-04-16T00:58:51.145Z,100.00
2018-04-16T01:02:04.294Z,100.00
2018-04-16T01:03:12.022Z,100.00
2018-04-16T01:06:21.727Z,100.00
2018-04-16T01:09:33.348Z,100.00
2018-04-16T01:12:47.170Z,100.00
2018-04-16T01:15:56.012Z,100.00
2018-04-16T01:19:04.599Z,100.00
2018-04-16T01:22:14.666Z,100.00
2018-04-16T01:25:24.726Z,100.00
2018-04-16T01:26:32.455Z,100.00
2018-04-16T01:29:41.244Z,100.00
2018-04-16T01:30:48.846Z,100.00
2018-04-16T01:33:57.943Z,100.00
2018-04-16T01:37:08.866Z,100.00
2018-04-16T01:40:19.486Z,100.00
2018-04-16T01:43:28.483Z,100.00
2018-04-16T01:44:36.074Z,100.00
2018-04-16T01:45:43.779Z,100.00
2018-04-16T01:48:53.781Z,100.00
2018-04-16T01:52:03.384Z,100.00
2018-04-16T01:55:14.439Z,100.00
2018-04-16T01:58:24.200Z,100.00
2018-04-16T02:01:37.210Z,100.00
2018-04-16T02:04:45.734Z,100.00
2018-04-16T02:08:00.803Z,100.00
2018-04-16T02:09:08.553Z,100.00
2018-04-16T02:12:17.621Z,100.00
2018-04-16T02:15:29.111Z,100.00
2018-04-16T02:18:38.512Z,100.00
2018-04-16T02:20:46.807Z,100.00
2018-04-16T02:22:54.127Z,100.00
2018-04-16T02:26:05.187Z,100.00
2018-04-16T02:29:19.868Z,100.00
2018-04-16T02:32:33.933Z,100.00
2018-04-16T02:37:55.638Z,100.00
2018-04-16T02:41:04.211Z,100.00
2018-04-16T02:43:10.645Z,100.00
2018-04-16T02:45:18.023Z,100.00
2018-04-16T02:48:29.581Z,100.00
2018-04-16T02:51:45.695Z,100.00
2018-04-16T02:54:57.406Z,100.00
2018-04-16T02:56:05.013Z,100.00
2018-04-16T02:59:14.054Z,100.00
2018-04-16T03:02:25.121Z,100.00
2018-04-16T03:05:33.952Z,100.00
2018-04-16T03:08:47.932Z,100.00
2018-04-16T03:09:55.652Z,100.00
2018-04-16T03:13:06.133Z,100.00
2018-04-16T03:16:14.658Z,100.00
2018-04-16T03:19:25.350Z,100.00
2018-04-16T03:22:36.982Z,100.00
2018-04-16T03:25:46.460Z,100.00
2018-04-16T03:27:53.844Z,100.00
2018-04-16T03:29:59.163Z,100.00
2018-04-16T03:31:06.831Z,100.00
2018-04-16T03:33:15.023Z,100.00
2018-04-16T03:36:28.785Z,100.00
2018-04-16T03:37:36.568Z,100.00
2018-04-16T03:39:43.951Z,100.00
2018-04-16T03:41:53.122Z,100.00
2018-04-16T03:43:00.761Z,100.00
2018-04-16T03:46:12.383Z,100.00
2018-04-16T03:47:20.116Z,100.00
2018-04-16T03:50:29.815Z,100.00
2018-04-16T03:51:32.830Z,100.00
2018-04-16T03:52:40.883Z,100.00
2018-04-16T03:53:44.032Z,100.00
2018-04-16T03:54:47.112Z,100.00
2018-04-16T03:55:50.124Z,100.00
2018-04-16T03:56:53.170Z,100.00
2018-04-16T03:57:56.324Z,100.00
2018-04-16T03:58:59.503Z,100.00
2018-04-16T04:00:02.746Z,100.00
2018-04-16T04:01:05.604Z,100.00
2018-04-16T04:02:08.420Z,100.00
2018-04-16T04:03:11.238Z,100.00
2018-04-16T04:04:14.042Z,100.00
2018-04-16T04:05:17.188Z,100.00
2018-04-16T04:06:20.033Z,100.00
2018-04-16T04:07:22.866Z,100.00
2018-04-16T04:08:25.773Z,100.00
2018-04-16T04:09:28.587Z,100.00
2018-04-16T04:10:31.373Z,100.00
2018-04-16T04:11:34.612Z,100.00
2018-04-16T04:12:37.350Z,100.00
2018-04-16T04:13:40.078Z,100.00
2018-04-16T04:14:42.777Z,100.00
2018-04-16T04:15:45.490Z,100.00
2018-04-16T04:16:48.233Z,100.00
2018-04-16T04:17:51.367Z,100.00
2018-04-16T04:18:54.848Z,100.00
2018-04-16T04:19:57.581Z,100.00
2018-04-16T04:21:00.391Z,100.00
2018-04-16T04:22:03.227Z,100.00
2018-04-16T04:23:06.076Z,100.00
2018-04-16T04:24:09.331Z,100.00
2018-04-16T04:25:12.178Z,100.00
2018-04-16T04:26:14.973Z,100.00
2018-04-16T04:27:17.845Z,100.00
2018-04-16T04:28:20.697Z,100.00
2018-04-16T04:29:23.873Z,100.00
2018-04-16T04:30:27.101Z,100.00
2018-04-16T04:31:29.833Z,100.00
2018-04-16T04:32:32.622Z,100.00
2018-04-16T04:33:35.350Z,100.00
2018-04-16T04:34:38.057Z,100.00
2018-04-16T04:35:41.301Z,100.00
2018-04-16T04:36:44.110Z,100.00
2018-04-16T04:37:46.923Z,100.00
2018-04-16T04:38:49.650Z,100.00
2018-04-16T04:39:52.491Z,100.00
2018-04-16T04:40:55.256Z,100.00
2018-04-16T04:41:58.488Z,100.00
2018-04-16T04:43:01.338Z,100.00
2018-04-16T04:44:04.185Z,100.00
2018-04-16T04:45:06.989Z,100.00
2018-04-16T04:46:09.812Z,100.00
2018-04-16T04:47:12.640Z,100.00
2018-04-16T04:48:15.839Z,100.00
2018-04-16T04:49:18.740Z,100.00
2018-04-16T04:50:21.589Z,100.00
2018-04-16T04:51:24.429Z,100.00
2018-04-16T04:52:27.216Z,100.00
2018-04-16T04:53:30.027Z,100.00
2018-04-16T04:54:33.341Z,100.00
2018-04-16T04:55:36.170Z,100.00
2018-04-16T04:56:39.006Z,100.00
2018-04-16T04:57:41.814Z,100.00
2018-04-16T04:58:44.665Z,100.00
2018-04-16T04:59:47.506Z,100.00
2018-04-16T05:00:50.710Z,100.00
2018-04-16T05:01:53.441Z,100.00
2018-04-16T05:02:56.216Z,100.00
2018-04-16T05:03:59.141Z,100.00
2018-04-16T05:05:01.898Z,100.00
2018-04-16T05:06:05.017Z,100.00
2018-04-16T05:07:08.270Z,100.00
2018-04-16T05:08:11.093Z,100.00
2018-04-16T05:09:13.929Z,100.00
2018-04-16T05:10:16.845Z,100.00
2018-04-16T05:11:19.671Z,100.00
2018-04-16T05:12:22.508Z,100.00
2018-04-16T05:13:25.742Z,100.00
2018-04-16T05:14:28.589Z,100.00
2018-04-16T05:15:31.401Z,100.00
2018-04-16T05:16:34.860Z,100.00
2018-04-16T05:17:37.703Z,100.00
2018-04-16T05:18:40.540Z,100.00
2018-04-16T05:19:44.209Z,100.00
2018-04-16T05:20:47.016Z,100.00
2018-04-16T05:21:49.865Z,100.00
2018-04-16T05:22:52.782Z,100.00
2018-04-16T05:23:55.664Z,100.00
2018-04-16T05:24:58.545Z,100.00
2018-04-16T05:26:01.665Z,100.00
2018-04-16T05:27:04.604Z,100.00
2018-04-16T05:28:07.544Z,100.00
2018-04-16T05:29:10.314Z,100.00
2018-04-16T05:30:13.246Z,100.00
2018-04-16T05:31:16.277Z,100.00
2018-04-16T05:32:19.669Z,100.00
2018-04-16T05:33:22.527Z,100.00
2018-04-16T05:34:25.255Z,100.00
2018-04-16T05:35:28.150Z,100.00
2018-04-16T05:36:30.979Z,100.00
2018-04-16T05:37:33.859Z,100.00
2018-04-16T05:38:36.827Z,100.00
2018-04-16T05:39:39.657Z,100.00
2018-04-16T05:40:42.494Z,100.00
2018-04-16T05:41:45.309Z,100.00
2018-04-16T05:42:48.165Z,100.00
2018-04-16T05:43:51.469Z,100.00
2018-04-16T05:44:54.562Z,100.00
2018-04-16T05:45:57.296Z,100.00
2018-04-16T05:47:00.041Z,100.00
2018-04-16T05:48:02.771Z,100.00
2018-04-16T05:49:05.535Z,100.00
2018-04-16T05:50:08.617Z,100.00
2018-04-16T05:51:11.379Z,100.00
2018-04-16T05:52:14.114Z,100.00
2018-04-16T05:53:16.981Z,100.00
2018-04-16T05:54:19.698Z,100.00
2018-04-16T05:55:22.501Z,100.00
2018-04-16T05:56:25.679Z,100.00
2018-04-16T05:57:28.509Z,100.00
2018-04-16T05:58:31.259Z,100.00
2018-04-16T05:59:34.083Z,100.00
2018-04-16T06:00:37.041Z,100.00
2018-04-16T06:01:40.201Z,100.00
2018-04-16T06:02:43.291Z,100.00
2018-04-16T06:03:46.149Z,100.00
2018-04-16T06:04:48.914Z,100.00
2018-04-16T06:05:51.735Z,100.00
2018-04-16T06:06:54.609Z,100.00
2018-04-16T06:07:57.714Z,100.00
2018-04-16T06:09:00.869Z,100.00
2018-04-16T06:10:04.681Z,100.00
2018-04-16T06:11:07.530Z,100.00
2018-04-16T06:12:10.420Z,100.00
2018-04-16T06:13:13.256Z,100.00
2018-04-16T06:14:16.304Z,100.00
2018-04-16T06:15:19.100Z,100.00
2018-04-16T06:16:21.930Z,100.00
2018-04-16T06:17:24.812Z,100.00
2018-04-16T06:18:28.692Z,100.00
2018-04-16T06:19:32.193Z,100.00
2018-04-16T06:20:35.061Z,100.00
2018-04-16T06:21:37.941Z,100.00
2018-04-16T06:22:40.803Z,100.00
2018-04-16T06:23:43.690Z,100.00
2018-04-16T06:24:46.506Z,100.00
2018-04-16T06:25:49.983Z,100.00
2018-04-16T06:26:52.857Z,100.00
2018-04-16T06:27:55.874Z,100.00
2018-04-16T06:28:58.741Z,100.00
2018-04-16T06:30:01.686Z,100.00
2018-04-16T06:31:04.882Z,100.00
2018-04-16T06:32:08.077Z,100.00
2018-04-16T06:33:10.914Z,100.00
2018-04-16T06:34:13.764Z,100.00
2018-04-16T06:35:16.796Z,100.00
2018-04-16T06:36:19.618Z,100.00
2018-04-16T06:37:22.452Z,100.00
2018-04-16T06:38:25.616Z,100.00
2018-04-16T06:39:28.453Z,100.00
2018-04-16T06:40:31.330Z,100.00
2018-04-16T06:41:34.175Z,100.00
2018-04-16T06:42:37.016Z,100.00
2018-04-16T06:43:39.848Z,100.00
2018-04-16T06:44:42.997Z,100.00
2018-04-16T06:45:46.396Z,100.00
2018-04-16T06:46:49.492Z,100.00
2018-04-16T06:47:52.329Z,100.00
2018-04-16T06:48:55.330Z,100.00
2018-04-16T06:49:58.318Z,100.00
2018-04-16T06:51:01.631Z,100.00
2018-04-16T06:52:04.573Z,100.00
2018-04-16T06:53:07.419Z,100.00
2018-04-16T06:54:10.232Z,100.00
2018-04-16T06:55:13.532Z,100.00
2018-04-16T06:56:16.578Z,100.00
2018-04-16T06:57:19.838Z,100.00
2018-04-16T06:58:22.709Z,100.00
2018-04-16T06:59:25.893Z,100.00
2018-04-16T07:00:28.934Z,100.00
2018-04-16T07:01:31.784Z,100.00
2018-04-16T07:02:34.622Z,100.00
2018-04-16T07:03:38.121Z,100.00
2018-04-16T07:04:40.965Z,100.00
2018-04-16T07:05:43.816Z,100.00
2018-04-16T07:06:46.756Z,100.00
2018-04-16T07:07:49.617Z,100.00
2018-04-16T07:08:52.892Z,100.00
2018-04-16T07:09:56.300Z,100.00
2018-04-16T07:10:59.083Z,100.00
2018-04-16T07:12:01.943Z,100.00
2018-04-16T07:13:04.730Z,100.00
2018-04-16T07:14:07.609Z,100.00
2018-04-16T07:15:10.473Z,100.00
2018-04-16T07:16:13.853Z,100.00
2018-04-16T07:17:17.937Z,100.00
2018-04-16T07:18:20.978Z,100.00
2018-04-16T07:19:23.862Z,100.00
2018-04-16T07:20:26.848Z,100.00
2018-04-16T07:21:29.885Z,100.00
2018-04-16T07:22:33.073Z,100.00
2018-04-16T07:23:36.302Z,100.00
2018-04-16T07:24:40.153Z,100.00
2018-04-16T07:25:44.509Z,100.00
2018-04-16T07:26:48.990Z,100.00
2018-04-16T07:27:59.257Z,100.00
2018-04-16T07:29:05.804Z,100.00
2018-04-16T07:30:08.872Z,100.00
2018-04-16T07:31:11.831Z,100.00
2018-04-16T07:32:15.970Z,100.00
2018-04-16T07:33:19.276Z,100.00
2018-04-16T07:34:22.158Z,100.00
2018-04-16T07:35:25.070Z,100.00
2018-04-16T07:36:28.283Z,100.00
2018-04-16T07:37:31.382Z,100.00
2018-04-16T07:38:34.173Z,100.00
2018-04-16T07:39:37.282Z,100.00
2018-04-16T07:40:40.106Z,100.00
2018-04-16T07:41:42.888Z,100.00
2018-04-16T07:42:45.661Z,100.00
2018-04-16T07:43:48.507Z,100.00
2018-04-16T07:44:51.327Z,100.00
2018-04-16T07:45:54.613Z,100.00
2018-04-16T07:46:57.339Z,100.00
2018-04-16T07:48:00.151Z,100.00
2018-04-16T07:49:07.925Z,100.00
2018-04-16T07:50:10.680Z,100.00
2018-04-16T07:51:13.546Z,100.00
2018-04-16T07:52:16.790Z,100.00
2018-04-16T07:53:19.570Z,100.00
2018-04-16T07:54:22.385Z,100.00
2018-04-16T07:55:25.164Z,100.00
2018-04-16T07:56:28.063Z,100.00
2018-04-16T07:57:30.839Z,100.00
2018-04-16T07:58:34.027Z,100.00
2018-04-16T07:59:37.157Z,100.00
2018-04-16T08:00:40.087Z,100.00
2018-04-16T08:01:42.925Z,100.00
2018-04-16T08:02:47.338Z,100.00
2018-04-16T08:03:50.281Z,100.00
2018-04-16T08:04:54.027Z,100.00
2018-04-16T08:05:57.150Z,100.00
2018-04-16T08:07:00.345Z,100.00
2018-04-16T08:08:03.282Z,100.00
2018-04-16T08:09:06.109Z,100.00
2018-04-16T08:10:08.963Z,100.00
2018-04-16T08:11:12.581Z,100.00
2018-04-16T08:12:16.051Z,100.00
2018-04-16T08:13:19.360Z,100.00
2018-04-16T08:14:22.200Z,100.00
2018-04-16T08:15:25.195Z,100.00
2018-04-16T08:16:28.100Z,100.00
2018-04-16T08:17:31.609Z,100.00
2018-04-16T08:18:34.446Z,100.00
2018-04-16T08:19:37.344Z,100.00
2018-04-16T08:20:40.261Z,100.00
2018-04-16T08:21:43.147Z,100.00
2018-04-16T08:22:45.990Z,100.00
2018-04-16T08:23:49.350Z,100.00
2018-04-16T08:24:52.540Z,100.00
2018-04-16T08:25:55.390Z,100.00
2018-04-16T08:26:58.308Z,100.00
2018-04-16T08:28:01.684Z,100.00
2018-04-16T08:29:05.042Z,100.00
2018-04-16T08:30:07.892Z,100.00
2018-04-16T08:31:10.719Z,100.00
2018-04-16T08:32:15.147Z,100.00
2018-04-16T08:33:18.050Z,100.00
2018-04-16T08:34:21.024Z,100.00
2018-04-16T08:35:23.960Z,100.00
2018-04-16T08:36:27.210Z,100.00
2018-04-16T08:37:30.102Z,100.00
2018-04-16T08:38:33.094Z,100.00
2018-04-16T08:39:37.508Z,100.00
2018-04-16T08:40:41.824Z,100.00
2018-04-16T08:41:44.983Z,100.00
2018-04-16T08:42:48.266Z,100.00
2018-04-16T08:43:51.302Z,100.00
2018-04-16T08:44:54.145Z,100.00
2018-04-16T08:45:58.983Z,100.00
2018-04-16T08:47:01.887Z,100.00
2018-04-16T08:48:04.870Z,100.00
2018-04-16T08:49:08.308Z,100.00
2018-04-16T08:50:11.040Z,100.00
2018-04-16T08:51:15.204Z,100.00
2018-04-16T08:52:18.267Z,100.00
2018-04-16T08:53:21.076Z,100.00
2018-04-16T08:54:23.902Z,100.00
2018-04-16T08:55:27.146Z,100.00
2018-04-16T08:56:30.693Z,100.00
2018-04-16T08:57:33.652Z,100.00
2018-04-16T08:58:36.530Z,100.00
2018-04-16T08:59:39.752Z,100.00
2018-04-16T09:00:42.510Z,100.00
2018-04-16T09:01:45.758Z,99.31
2018-04-16T09:02:48.610Z,98.10
2018-04-16T09:03:51.467Z,98.87
2018-04-16T09:04:54.586Z,99.56
2018-04-16T09:05:57.487Z,97.91
2018-04-16T09:07:00.409Z,97.19
2018-04-16T09:08:03.922Z,97.34
2018-04-16T09:09:06.823Z,97.25
2018-04-16T09:10:09.642Z,94.82
2018-04-16T09:11:12.645Z,89.80
2018-04-16T09:12:15.502Z,91.11
2018-04-16T09:13:18.488Z,94.19
2018-04-16T09:14:21.748Z,92.81
2018-04-16T09:15:24.592Z,92.35
2018-04-16T09:16:28.682Z,89.14
2018-04-16T09:17:32.278Z,89.40
2018-04-16T09:18:35.461Z,88.05
2018-04-16T09:19:38.312Z,90.29
2018-04-16T09:20:41.692Z,92.28
2018-04-16T09:21:44.572Z,92.15
2018-04-16T09:22:47.429Z,90.71
2018-04-16T09:23:50.187Z,89.20
2018-04-16T09:24:53.241Z,87.37
2018-04-16T09:25:56.017Z,84.87
2018-04-16T09:26:59.053Z,85.40
2018-04-16T09:28:01.800Z,83.92
2018-04-16T09:29:04.584Z,81.85
2018-04-16T09:30:07.935Z,81.77
2018-04-16T09:31:10.690Z,80.29
2018-04-16T09:32:13.461Z,81.42
2018-04-16T09:33:16.655Z,83.05
2018-04-16T09:34:19.498Z,87.60
2018-04-16T09:35:22.336Z,90.47
2018-04-16T09:36:25.160Z,90.30
2018-04-16T09:37:27.967Z,90.86
2018-04-16T09:38:30.806Z,91.72
2018-04-16T09:39:34.143Z,91.17
2018-04-16T09:40:36.988Z,92.02
2018-04-16T09:41:39.861Z,92.50
2018-04-16T09:42:42.831Z,93.52
2018-04-16T09:43:45.694Z,94.39
2018-04-16T09:44:48.615Z,93.84
2018-04-16T09:45:51.985Z,93.97
2018-04-16T09:46:54.889Z,97.92
2018-04-16T09:47:57.732Z,100.00
2018-04-16T09:49:00.673Z,100.00
2018-04-16T09:50:03.578Z,100.00
2018-04-16T09:51:06.471Z,100.00
2018-04-16T09:52:09.906Z,100.00
2018-04-16T09:53:12.961Z,100.00
2018-04-16T09:54:15.861Z,100.00
2018-04-16T09:55:18.740Z,100.00
2018-04-16T09:56:21.689Z,100.00
2018-04-16T09:57:24.643Z,100.00
2018-04-16T09:58:27.876Z,100.00
2018-04-16T09:59:30.785Z,100.00
2018-04-16T10:00:37.554Z,100.00
2018-04-16T10:01:41.043Z,100.00
2018-04-16T10:02:47.863Z,100.00
2018-04-16T10:03:50.729Z,100.00
2018-04-16T10:04:54.095Z,100.00
2018-04-16T10:05:57.168Z,100.00
2018-04-16T10:07:00.296Z,100.00
2018-04-16T10:08:03.253Z,100.00
2018-04-16T10:09:06.263Z,100.00
2018-04-16T10:10:09.221Z,100.00
2018-04-16T10:11:13.361Z,100.00
2018-04-16T10:12:16.320Z,100.00
2018-04-16T10:13:19.264Z,100.00
2018-04-16T10:14:22.348Z,100.00
2018-04-16T10:15:25.365Z,100.00
2018-04-16T10:16:28.231Z,100.00
2018-04-16T10:17:31.481Z,100.00
2018-04-16T10:18:36.353Z,100.00
2018-04-16T10:19:39.481Z,100.00
2018-04-16T10:20:42.425Z,100.00
2018-04-16T10:21:45.380Z,100.00
2018-04-16T10:22:48.841Z,100.00
2018-04-16T10:23:52.232Z,100.00
2018-04-16T10:24:55.116Z,98.38
2018-04-16T10:25:58.056Z,96.27
2018-04-16T10:27:01.066Z,94.26
2018-04-16T10:28:03.910Z,92.56
2018-04-16T10:29:06.821Z,90.69
2018-04-16T10:30:10.143Z,88.86
2018-04-16T10:31:13.073Z,89.37
2018-04-16T10:32:16.153Z,91.64
2018-04-16T10:33:19.008Z,91.61
2018-04-16T10:34:22.000Z,92.84
2018-04-16T10:35:24.922Z,94.78
2018-04-16T10:36:28.305Z,98.26
2018-04-16T10:37:31.431Z,100.00
2018-04-16T10:38:34.293Z,100.00
2018-04-16T10:39:37.156Z,100.00
2018-04-16T10:40:40.092Z,100.00
2018-04-16T10:41:42.909Z,100.00
2018-04-16T10:42:46.131Z,100.00
2018-04-16T10:43:48.998Z,100.00
2018-04-16T10:44:51.815Z,100.00
2018-04-16T10:45:54.709Z,100.00
2018-04-16T10:46:57.570Z,100.00
2018-04-16T10:48:00.451Z,100.00
2018-04-16T10:49:03.732Z,100.00
2018-04-16T10:50:06.578Z,100.00
2018-04-16T10:51:09.406Z,100.00
2018-04-16T10:52:12.267Z,100.00
2018-04-16T10:53:15.237Z,100.00
2018-04-16T10:54:18.263Z,100.00
2018-04-16T10:55:22.380Z,100.00
2018-04-16T10:56:25.183Z,100.00
2018-04-16T10:57:28.035Z,100.00
2018-04-16T10:58:30.933Z,100.00
2018-04-16T10:59:33.772Z,100.00
2018-04-16T11:00:36.718Z,100.00
2018-04-16T11:01:40.130Z,100.00
2018-04-16T11:02:42.989Z,100.00
2018-04-16T11:03:45.852Z,100.00
2018-04-16T11:04:48.893Z,100.00
2018-04-16T11:05:51.887Z,100.00
2018-04-16T11:06:54.748Z,100.00
2018-04-16T11:07:57.910Z,100.00
2018-04-16T11:09:00.784Z,100.00
2018-04-16T11:10:03.811Z,100.00
2018-04-16T11:11:06.652Z,100.00
2018-04-16T11:12:09.687Z,100.00
2018-04-16T11:13:12.639Z,100.00
2018-04-16T11:14:16.083Z,100.00
2018-04-16T11:15:18.932Z,100.00
2018-04-16T11:16:21.793Z,100.00
2018-04-16T11:17:24.655Z,100.00
2018-04-16T11:18:27.622Z,100.00
2018-04-16T11:19:30.540Z,100.00
2018-04-16T11:20:34.161Z,100.00
2018-04-16T11:21:37.161Z,100.00
2018-04-16T11:22:39.977Z,100.00
2018-04-16T11:23:42.799Z,100.00
2018-04-16T11:24:46.390Z,100.00
2018-04-16T11:25:49.122Z,100.00
2018-04-16T11:26:52.309Z,100.00
2018-04-16T11:27:55.294Z,100.00
2018-04-16T11:28:58.262Z,100.00
2018-04-16T11:30:01.672Z,100.00
2018-04-16T11:31:04.689Z,100.00
2018-04-16T11:32:07.562Z,100.00
2018-04-16T11:33:10.823Z,100.00
2018-04-16T11:34:14.242Z,100.00
2018-04-16T11:35:17.088Z,100.00
2018-04-16T11:36:19.971Z,100.00
2018-04-16T11:37:22.928Z,100.00
2018-04-16T11:38:26.028Z,100.00
2018-04-16T11:39:29.273Z,100.00
2018-04-16T11:40:32.115Z,100.00
2018-04-16T11:41:34.998Z,100.00
2018-04-16T11:42:37.825Z,100.00
2018-04-16T11:43:40.675Z,100.00
2018-04-16T11:44:43.726Z,98.08
2018-04-16T11:45:46.873Z,97.88
2018-04-16T11:46:49.768Z,100.00
2018-04-16T11:47:52.549Z,100.00
2018-04-16T11:50:11.660Z,99.88
2018-04-16T11:51:14.476Z,99.59
2018-04-16T11:52:17.559Z,97.41
2018-04-16T11:53:20.488Z,97.08
2018-04-16T11:54:23.385Z,97.47
2018-04-16T11:55:26.583Z,98.90
2018-04-16T11:56:29.529Z,100.00
2018-04-16T11:57:32.421Z,100.00
2018-04-16T11:58:35.740Z,100.00
2018-04-16T11:59:39.755Z,100.00
2018-04-16T12:00:42.598Z,100.00
2018-04-16T12:01:45.354Z,100.00
2018-04-16T12:02:48.179Z,98.54
2018-04-16T12:03:51.141Z,95.90
2018-04-16T12:04:54.525Z,94.09
2018-04-16T12:05:57.347Z,90.53
2018-04-16T12:07:00.227Z,88.00
2018-04-16T12:08:03.077Z,89.34
2018-04-16T12:09:06.023Z,88.63
2018-04-16T12:10:08.897Z,88.09
2018-04-16T12:11:12.090Z,89.86
2018-04-16T12:12:14.941Z,86.60
2018-04-16T12:13:17.799Z,91.00
2018-04-16T12:14:20.729Z,90.73
2018-04-16T12:15:23.573Z,87.38
2018-04-16T12:16:26.484Z,82.32
2018-04-16T12:17:29.904Z,79.11
2018-04-16T12:18:33.053Z,80.04
2018-04-16T12:19:35.930Z,80.33
2018-04-16T12:20:38.762Z,77.78
2018-04-16T12:21:42.441Z,77.64
2018-04-16T12:22:45.302Z,78.02
2018-04-16T12:23:48.701Z,77.20
2018-04-16T12:24:51.531Z,79.74
2018-04-16T12:25:54.398Z,80.65
2018-04-16T12:26:57.272Z,82.29
2018-04-16T12:28:00.128Z,83.71
2018-04-16T12:29:02.963Z,77.56
2018-04-16T12:30:06.420Z,80.68
2018-04-16T12:31:09.300Z,84.89
2018-04-16T12:32:12.565Z,84.88
2018-04-16T12:33:15.424Z,86.14
2018-04-16T12:34:18.282Z,86.82
2018-04-16T12:35:21.168Z,85.26
2018-04-16T12:36:24.534Z,85.55
2018-04-16T12:37:27.395Z,85.09
2018-04-16T12:38:30.149Z,82.86
2018-04-16T12:39:33.000Z,80.46
2018-04-16T12:40:35.873Z,80.40
2018-04-16T12:41:38.695Z,79.11
2018-04-16T12:42:42.029Z,78.40
2018-04-16T12:43:44.920Z,77.85
2018-04-16T12:44:47.809Z,79.94
2018-04-16T12:45:50.689Z,80.27
2018-04-16T12:46:53.491Z,80.84
2018-04-16T12:47:56.349Z,82.29
2018-04-16T12:48:59.667Z,83.17
2018-04-16T12:50:02.503Z,82.99
2018-04-16T12:51:05.303Z,83.81
2018-04-16T12:52:08.470Z,86.70
2018-04-16T12:53:11.261Z,89.64
2018-04-16T12:54:14.129Z,87.65
2018-04-16T12:55:17.409Z,86.84
2018-04-16T12:56:20.190Z,86.13
2018-04-16T12:57:22.970Z,84.79
2018-04-16T12:58:25.720Z,87.17
2018-04-16T12:59:28.523Z,87.72
2018-04-16T13:00:31.379Z,87.03
2018-04-16T13:01:34.541Z,84.32
2018-04-16T13:02:37.437Z,82.25
2018-04-16T13:03:40.315Z,82.50
2018-04-16T13:04:43.174Z,79.31
2018-04-16T13:05:46.237Z,80.51
2018-04-16T13:06:49.420Z,79.86
2018-04-16T13:07:52.404Z,78.39
2018-04-16T13:08:55.429Z,76.34
2018-04-16T13:09:58.545Z,79.20
2018-04-16T13:11:01.431Z,79.79
2018-04-16T13:12:04.306Z,76.91
2018-04-16T13:13:07.614Z,75.80
2018-04-16T13:14:10.411Z,77.75
2018-04-16T13:15:13.253Z,78.10
2018-04-16T13:16:16.167Z,76.54
2018-04-16T13:17:19.430Z,76.75
2018-04-16T13:18:22.365Z,77.98
2018-04-16T13:19:25.660Z,77.53
2018-04-16T13:20:28.552Z,77.13
2018-04-16T13:21:32.544Z,75.80
2018-04-16T13:22:35.420Z,77.11
2018-04-16T13:23:38.234Z,76.28
2018-04-16T13:24:41.090Z,78.10
2018-04-16T13:25:44.224Z,75.29
2018-04-16T13:26:47.088Z,74.38
2018-04-16T13:27:49.949Z,74.25
2018-04-16T13:28:52.855Z,73.14
2018-04-16T13:29:55.665Z,72.38
2018-04-16T13:30:58.508Z,68.17
2018-04-16T13:32:02.525Z,68.78
2018-04-16T13:33:05.333Z,69.22
2018-04-16T13:34:08.208Z,68.55
2018-04-16T13:35:11.004Z,67.69
2018-04-16T13:36:13.886Z,69.08
2018-04-16T13:37:16.742Z,70.32
2018-04-16T13:38:19.930Z,71.09
2018-04-16T13:39:22.766Z,73.12
2018-04-16T13:40:25.639Z,72.84
2018-04-16T13:41:28.559Z,72.55
2018-04-16T13:42:31.628Z,71.77
2018-04-16T13:43:34.379Z,71.97
2018-04-16T13:44:37.743Z,71.69
2018-04-16T13:45:40.654Z,71.82
2018-04-16T13:46:43.506Z,72.39
2018-04-16T13:47:46.383Z,72.26
2018-04-16T13:48:49.235Z,73.31
2018-04-16T13:49:52.508Z,72.54
2018-04-16T13:50:55.712Z,73.23
2018-04-16T13:51:58.606Z,74.27
2018-04-16T13:53:01.654Z,74.79
2018-04-16T13:54:04.604Z,75.20
2018-04-16T13:55:07.508Z,74.39
2018-04-16T13:56:10.858Z,75.96
2018-04-16T13:57:15.579Z,75.11
2018-04-16T13:58:18.657Z,73.01
2018-04-16T13:59:22.929Z,74.23
2018-04-16T14:00:26.050Z,73.43
2018-04-16T14:01:29.050Z,73.34
2018-04-16T14:02:32.516Z,75.24
2018-04-16T14:03:35.810Z,77.66
2018-04-16T14:04:38.676Z,78.87
2018-04-16T14:05:41.526Z,77.68
2018-04-16T14:08:03.322Z,75.82
2018-04-16T14:09:06.394Z,75.45
2018-04-16T14:10:09.226Z,74.54
2018-04-16T14:11:12.068Z,72.87
2018-04-16T14:12:15.445Z,70.38
2018-04-16T14:13:18.260Z,70.12
2018-04-16T14:14:21.359Z,68.30
2018-04-16T14:15:24.654Z,70.18
2018-04-16T14:16:27.683Z,72.07
2018-04-16T14:17:30.628Z,70.91
2018-04-16T14:18:33.502Z,73.25
2018-04-16T14:19:36.349Z,73.03
2018-04-16T14:20:39.149Z,72.63
2018-04-16T14:21:42.454Z,73.52
2018-04-16T14:22:45.729Z,70.18
2018-04-16T14:23:48.448Z,68.64
2018-04-16T14:24:51.179Z,65.59
2018-04-16T14:25:53.909Z,66.37
2018-04-16T14:26:56.776Z,63.94
2018-04-16T14:27:59.998Z,62.60
2018-04-16T14:29:02.840Z,62.06
2018-04-16T14:30:07.091Z,61.56
2018-04-16T14:31:09.995Z,59.13
2018-04-16T14:32:12.789Z,61.12
2018-04-16T14:33:16.268Z,61.00
2018-04-16T14:34:19.381Z,63.14
2018-04-16T14:35:22.831Z,66.44
2018-04-16T14:36:25.670Z,66.37
2018-04-16T14:37:28.590Z,66.84
2018-04-16T14:38:31.422Z,69.26
2018-04-16T14:39:34.288Z,69.97
2018-04-16T14:40:37.354Z,71.24
2018-04-16T14:41:40.154Z,71.12
2018-04-16T14:42:43.627Z,71.12
2018-04-16T14:43:46.308Z,71.12
2018-04-16T14:44:49.138Z,71.84
2018-04-16T14:45:51.981Z,72.69
2018-04-16T14:46:55.104Z,73.29
2018-04-16T14:47:57.987Z,71.86
2018-04-16T14:49:00.875Z,72.66
2018-04-16T14:50:03.785Z,69.99
2018-04-16T14:51:06.692Z,70.93
2018-04-16T14:52:09.617Z,69.83
2018-04-16T14:53:12.878Z,69.83
2018-04-16T14:54:15.656Z,69.32
2018-04-16T14:55:18.511Z,68.26
2018-04-16T14:56:21.320Z,66.90
2018-04-16T14:57:24.103Z,65.35
2018-04-16T14:58:26.907Z,61.32
2018-04-16T14:59:30.079Z,59.99
2018-04-16T15:00:33.278Z,58.31
2018-04-16T15:01:36.120Z,57.02
2018-04-16T15:02:39.080Z,57.94
2018-04-16T15:03:42.070Z,57.46
2018-04-16T15:04:44.890Z,57.40
2018-04-16T15:05:49.381Z,59.71
2018-04-16T15:06:52.476Z,61.22
2018-04-16T15:07:55.697Z,65.67
2018-04-16T15:08:58.602Z,66.34
2018-04-16T15:10:01.517Z,65.76
2018-04-16T15:11:04.382Z,63.67
2018-04-16T15:12:07.566Z,60.83
2018-04-16T15:13:10.443Z,57.52
2018-04-16T15:14:13.500Z,55.98
2018-04-16T15:15:16.398Z,60.39
2018-04-16T15:16:19.252Z,62.32
2018-04-16T15:17:22.086Z,64.97
2018-04-16T15:18:25.327Z,67.87
2018-04-16T15:19:28.700Z,72.18